This is the latest recevied weather packets stored in our database for station/object KM4CBK. If no packets are shown the sender has not sent any weather packets the latest 10 day(s).
| Time | Temp. | Humidity | Pressure | Rain* | Wind** | Luminosity | Snow |
|---|---|---|---|---|---|---|---|
| 1777233471 | 30° C | 51% | 1009.9 hPa | 0 mm | - | 204 W/m² | - |
| 1777233170 | 30° C | 52% | 1010.1 hPa | 0 mm | - | 555 W/m² | - |
| 1777232866 | 30° C | 51% | 1010.1 hPa | 0 mm | - | 651 W/m² | - |
| 1777232565 | 30° C | 53% | 1010.2 hPa | 0 mm | - | 642 W/m² | - |
| 1777232263 | 28.89° C | 53% | 1010.5 hPa | 0 mm | - | 560 W/m² | - |
| 1777231958 | 29.44° C | 53% | 1010.2 hPa | 0 mm | - | 464 W/m² | - |
| 1777231656 | 28.89° C | 54% | 1010.4 hPa | 0 mm | - | 380 W/m² | - |
| 1777231353 | 29.44° C | 55% | 1010.3 hPa | 0 mm | - | 456 W/m² | - |
| 1777231048 | 28.89° C | 55% | 1010.3 hPa | 0 mm | - | 566 W/m² | - |
| 1777230745 | 28.33° C | 60% | 1010.4 hPa | 0 mm | - | 521 W/m² | - |
| 1777230445 | 28.89° C | 55% | 1010.3 hPa | 0 mm | - | 661 W/m² | - |
| 1777230142 | 28.89° C | 58% | 1010.7 hPa | 0 mm | - | 505 W/m² | - |
| 1777229839 | 27.78° C | 59% | 1010.7 hPa | 0 mm | - | 182 W/m² | - |
| 1777229535 | 28.89° C | 58% | 1010.7 hPa | 0 mm | - | 506 W/m² | - |
| 1777229232 | 29.44° C | 55% | 1010.7 hPa | 0 mm | - | 126 W/m² | - |
| 1777228930 | 30° C | 54% | 1010.9 hPa | 0 mm | - | 634 W/m² | - |
| 1777228625 | 28.33° C | 60% | 1010.7 hPa | 0 mm | - | 711 W/m² | - |
| 1777228320 | 28.89° C | 58% | 1010.8 hPa | 0 mm | - | 597 W/m² | - |
| 1777228016 | 29.44° C | 61% | 1011.1 hPa | 0 mm | - | 762 W/m² | - |
| 1777227710 | 27.78° C | 63% | 1010.8 hPa | 0 mm | - | 784 W/m² | - |
| 1777227407 | 28.89° C | 60% | 1011.1 hPa | 0 mm | - | 165 W/m² | - |
| 1777227103 | 28.89° C | 59% | 1011.2 hPa | 0 mm | - | 702 W/m² | - |
| 1777226799 | 28.33° C | 61% | 1011.2 hPa | 0 mm | - | 208 W/m² | - |
| 1777226498 | 27.78° C | 62% | 1011.4 hPa | 0 mm | - | 513 W/m² | - |
| 1777226195 | 27.22° C | 65% | 1011.2 hPa | 0 mm | - | 434 W/m² | - |
* Rain latest hour (hover to see other rain measurements)
** Current wind speed in m/s (hover to see current wind gust speed)